Uvarovo, Russia
Current Conditions -  °F | °C
As of 12:30 AM on Wednesday 22 Oct 2014 (Local Time) from UUOO Reporting Station
Overcast Overcast  
Wind Chill: 41°   Ceiling: 4300
Heat Index: 46°   Visibility: 6mi
Dew Point: 41°   Wind: 11mph
Humidity: 81%   Direction: 320°NW
Pressure: 29.53"   Gusts: NA
Location:  51.99°N, 42.26°E
Report Text: UUOO 212130Z 32005MPS 9999 OVC043 08/05 Q1000 NOSIG RMK30290148
Loading
Personal Weather Stations






























Interactive Weather Map
Tropical Storm Tracking
New forecast layout! Learn more

10-Day Weather Forecast

Advertisements
Track Severe Weather on mobile